Time;durP1;ratioP1;P1;durP2;ratioP2;P2;SDS_P1;SDS_P2;PMS_P1;PMS_P2;Temp;Humidity;BMP_temperature;BMP_pressure;BME280_temperature;BME280_humidity;BME280_pressure;Samples;Min_cycle;Max_cycle;Signal;HPM_P1;HPM_P2
2021/04/07 00:01:43;;;;;;;;;;;4.60;99.90;;;4.57;72.63;101360.16;5093683;28;19920;-70
2021/04/07 00:04:11;;;;;;;;;;;4.50;99.90;;;4.59;72.12;101361.06;5092028;28;20340;-70
2021/04/07 00:06:40;;;;;;;;;;;4.60;99.90;;;4.77;70.21;101360.69;5093231;28;19924;-70
2021/04/07 00:09:07;;;;;;;;;;;4.70;99.90;;;4.82;70.35;101369.53;5091650;28;19960;-70
2021/04/07 00:11:38;;;;;;;;;;;4.80;99.90;;;4.64;70.40;101374.31;5092948;28;19920;-71
2021/04/07 00:14:09;;;;;;;;;;;4.70;99.90;;;4.34;73.55;101383.91;5092937;28;20302;-70
2021/04/07 00:16:37;;;;;;;;;;;4.40;99.90;;;4.25;74.13;101370.56;5093031;28;20043;-71
2021/04/07 00:19:06;;;;;;;;;;;4.30;99.90;;;4.32;74.47;101369.88;5091533;28;19943;-71
2021/04/07 00:21:33;;;;;;;;;;;4.30;99.90;;;4.26;74.96;101367.97;5092851;28;19920;-70
2021/04/07 00:24:01;;;;;;;;;;;4.20;99.90;;;4.18;74.02;101351.16;5092999;28;19990;-70
2021/04/07 00:26:28;;;;;;;;;;;4.20;99.90;;;4.18;72.92;101347.69;5093067;28;19924;-70
2021/04/07 00:28:56;;;;;;;;;;;4.20;99.90;;;3.62;71.74;101243.97;5092947;28;20512;-70
2021/04/07 00:31:24;;;;;;;;;;;4.20;99.90;;;4.20;70.64;101351.22;5093097;28;19981;-70
2021/04/07 00:33:51;;;;;;;;;;;4.20;99.90;;;4.32;70.14;101352.47;5092763;28;20339;-70
2021/04/07 00:36:18;;;;;;;;;;;4.30;99.90;;;4.30;70.02;101348.91;5091431;28;20123;-70
2021/04/07 00:38:45;;;;;;;;;;;4.30;99.90;;;4.32;70.00;101349.84;5093161;28;20331;-70
2021/04/07 00:41:13;;;;;;;;;;;4.30;99.90;;;4.31;71.26;101353.31;5092889;28;19920;-70
2021/04/07 00:43:40;;;;;;;;;;;4.30;99.90;;;4.38;72.74;101351.72;5091426;28;20373;-70
2021/04/07 00:46:07;;;;;;;;;;;4.30;99.90;;;4.34;73.69;101334.16;5092796;28;19920;-70
2021/04/07 00:48:36;;;;;;;;;;;4.30;99.90;;;4.13;73.63;101331.84;5092889;28;20027;-70
2021/04/07 00:51:04;;;;;;;;;;;4.20;99.90;;;4.09;73.76;101332.59;5092788;28;19923;-70
2021/04/07 00:53:31;;;;;;;;;;;4.10;99.90;;;4.20;73.32;101335.53;5091481;28;19966;-70
2021/04/07 00:55:58;;;;;;;;;;;4.10;99.90;;;4.29;72.60;101341.91;5093045;28;20327;-70
2021/04/07 00:58:26;;;;;;;;;;;4.20;99.90;;;4.31;72.37;101337.59;5092729;28;20377;-70
2021/04/07 01:00:54;;;;;;;;;;;4.30;99.90;;;4.31;71.94;101345.47;5091502;28;19924;-70
2021/04/07 01:03:22;;;;;;;;;;;4.30;99.90;;;4.24;71.95;101350.47;5095502;28;19920;-70
2021/04/07 01:05:50;;;;;;;;;;;4.20;99.90;;;3.88;76.71;101365.09;5096120;28;19926;-70
2021/04/07 01:08:17;;;;;;;;;;;3.90;99.90;;;3.62;79.13;101365.16;5095257;28;19919;-70
2021/04/07 01:10:46;;;;;;;;;;;3.70;99.90;;;3.31;80.27;101357.19;5096225;28;19920;-70
2021/04/07 01:13:13;;;;;;;;;;;3.40;99.90;;;3.25;81.09;101377.91;5094750;28;20043;-70
2021/04/07 01:15:40;;;;;;;;;;;3.30;99.90;;;3.24;80.38;101336.03;5095875;28;19927;-70
2021/04/07 01:18:08;;;;;;;;;;;3.20;99.90;;;3.23;79.88;101332.53;5095776;28;19966;-69
2021/04/07 01:20:35;;;;;;;;;;;3.20;99.90;;;3.27;79.84;101329.19;5096227;28;20308;-70
2021/04/07 01:23:04;;;;;;;;;;;3.20;99.90;;;3.26;80.19;101331.75;5094529;28;19973;-69
2021/04/07 01:25:32;;;;;;;;;;;3.20;99.90;;;3.36;79.88;101324.25;5094411;28;20441;-70
2021/04/07 01:28:00;;;;;;;;;;;3.30;99.90;;;3.42;79.61;101302.66;5095767;28;20415;-70
2021/04/07 01:30:28;;;;;;;;;;;3.40;99.90;;;3.55;79.54;101313.53;5095573;28;19923;-70
2021/04/07 01:32:55;;;;;;;;;;;3.50;99.90;;;3.66;79.04;101317.34;5095710;28;20311;-70
2021/04/07 01:35:23;;;;;;;;;;;3.60;99.90;;;3.73;78.33;101312.31;5095828;28;19967;-70
2021/04/07 01:37:50;;;;;;;;;;;3.70;99.90;;;3.92;77.86;101325.97;5095617;28;20341;-70
2021/04/07 01:40:18;;;;;;;;;;;3.80;99.90;;;4.00;76.31;101320.97;5095730;28;19928;-70
2021/04/07 01:42:47;;;;;;;;;;;3.90;99.90;;;4.15;74.34;101303.97;5095096;28;19920;-70
2021/04/07 01:45:15;;;;;;;;;;;4.10;99.90;;;4.50;71.40;101303.22;5095280;28;19927;-70
2021/04/07 01:47:43;;;;;;;;;;;4.40;99.90;;;4.58;69.22;101291.22;5095507;28;19959;-70
2021/04/07 01:50:11;;;;;;;;;;;4.60;99.90;;;4.80;67.75;101307.50;5095328;28;19919;-70
2021/04/07 01:52:38;;;;;;;;;;;4.70;99.90;;;4.94;66.26;101298.22;5095315;28;19924;-70
2021/04/07 01:55:07;;;;;;;;;;;4.90;99.90;;;4.94;63.01;101298.22;5093915;28;20369;-70
2021/04/07 01:57:34;;;;;;;;;;;4.90;99.90;;;4.99;61.82;101291.38;5094986;28;19920;-70
2021/04/07 02:00:03;;;;;;;;;;;5.00;99.90;;;4.97;60.81;101280.88;5095329;28;19923;-70
2021/04/07 02:02:38;;;;;;;;;;;4.90;99.90;;;5.05;61.11;101299.41;5095095;28;19924;-70
2021/04/07 02:05:07;;;;;;;;;;;5.00;99.90;;;5.09;61.33;101296.88;5095103;28;19923;-70
2021/04/07 02:07:34;;;;;;;;;;;5.00;99.90;;;5.11;63.44;101294.31;5094952;28;20355;-70
2021/04/07 02:10:05;;;;;;;;;;;5.10;99.90;;;5.00;65.21;101278.31;5094835;28;20392;-70
2021/04/07 02:12:33;;;;;;;;;;;5.10;99.90;;;5.10;65.44;101303.91;5094822;28;20356;-70
2021/04/07 02:15:05;;;;;;;;;;;5.00;99.90;;;5.12;65.70;101294.34;5093908;28;19924;-70
2021/04/07 02:17:32;;;;;;;;;;;5.10;99.90;;;5.11;66.14;101296.94;5094898;28;19942;-70
2021/04/07 02:20:04;;;;;;;;;;;5.10;99.90;;;5.12;66.09;101301.31;5094752;28;20373;-70
2021/04/07 02:22:31;;;;;;;;;;;5.10;99.90;;;5.13;65.53;101269.00;5094569;28;19927;-70
2021/04/07 02:24:58;;;;;;;;;;;5.10;99.90;;;5.23;65.53;101286.69;5094339;28;19973;-71
2021/04/07 02:27:26;;;;;;;;;;;5.10;99.90;;;5.19;65.17;101277.88;5094624;28;20339;-71
2021/04/07 02:29:54;;;;;;;;;;;5.20;99.90;;;5.08;65.61;101283.72;5094631;28;20021;-71
2021/04/07 02:32:24;;;;;;;;;;;5.10;99.90;;;4.95;68.46;101282.56;5094426;28;19927;-71
2021/04/07 02:34:52;;;;;;;;;;;4.90;99.90;;;4.83;70.34;101307.56;5094668;28;19927;-71
2021/04/07 02:37:20;;;;;;;;;;;4.80;99.90;;;4.40;75.56;101298.56;5094470;28;20285;-71
2021/04/07 02:39:48;;;;;;;;;;;4.50;99.90;;;4.17;77.34;101311.88;5093328;28;20381;-70
2021/04/07 02:42:19;;;;;;;;;;;4.20;99.90;;;3.88;78.87;101297.06;5094273;28;20022;-70
2021/04/07 02:44:46;;;;;;;;;;;3.90;99.90;;;3.72;79.42;101294.84;5093157;28;19946;-70
2021/04/07 02:47:14;;;;;;;;;;;3.70;99.90;;;3.84;79.16;101295.19;5094290;28;20422;-70
2021/04/07 02:49:42;;;;;;;;;;;3.80;99.90;;;3.88;79.74;101300.56;5094123;28;19959;-70
2021/04/07 02:52:09;;;;;;;;;;;3.90;99.90;;;3.89;80.13;101281.41;5094046;28;19933;-70
2021/04/07 02:54:37;;;;;;;;;;;3.90;99.90;;;3.91;80.25;101289.31;5094241;28;20281;-70
2021/04/07 02:57:04;;;;;;;;;;;3.90;99.90;;;4.04;80.45;101305.41;5093936;28;20434;-70
2021/04/07 02:59:31;;;;;;;;;;;4.00;99.90;;;4.07;80.92;101313.34;5094101;28;19927;-70
2021/04/07 03:01:58;;;;;;;;;;;4.00;99.90;;;3.95;81.45;101299.88;5092596;28;20065;-70
2021/04/07 03:04:26;;;;;;;;;;;4.00;99.90;;;3.83;82.27;101312.66;5093937;28;19924;-70
2021/04/07 03:06:54;;;;;;;;;;;3.90;99.90;;;3.74;82.93;101321.91;5093773;28;19964;-70
2021/04/07 03:09:21;;;;;;;;;;;3.70;99.90;;;3.70;84.18;101312.22;5093924;28;19927;-70
2021/04/07 03:11:48;;;;;;;;;;;3.70;99.90;;;3.71;84.38;101317.50;5093811;28;19965;-70
2021/04/07 03:14:15;;;;;;;;;;;3.70;99.90;;;3.72;84.50;101298.34;5093731;28;19927;-70
2021/04/07 03:16:42;;;;;;;;;;;3.70;99.90;;;3.71;84.80;101314.00;5093596;28;19985;-70
2021/04/07 03:19:10;;;;;;;;;;;3.70;99.90;;;3.64;84.49;101305.06;5093488;28;19963;-70
2021/04/07 03:21:37;;;;;;;;;;;3.70;99.90;;;3.54;84.86;101310.88;5093711;28;20422;-70
2021/04/07 03:24:06;;;;;;;;;;;3.50;99.90;;;3.21;85.10;101318.56;5093472;28;19920;-71
2021/04/07 03:26:33;;;;;;;;;;;3.30;99.90;;;3.14;86.33;101305.22;5092111;28;20369;-71
2021/04/07 03:29:00;;;;;;;;;;;3.20;99.90;;;3.19;86.19;101286.25;5092339;28;19920;-72
2021/04/07 03:31:27;;;;;;;;;;;3.20;99.90;;;3.17;86.78;101294.88;5093635;28;19920;-71
2021/04/07 03:33:55;;;;;;;;;;;3.10;99.90;;;3.17;86.78;101279.19;5093636;28;19950;-71
2021/04/07 03:36:22;;;;;;;;;;;3.10;99.90;;;3.15;86.38;101296.56;5092229;28;20023;-71
2021/04/07 03:38:49;;;;;;;;;;;3.20;99.90;;;3.17;86.80;101287.94;5093574;28;19919;-73
2021/04/07 03:41:17;;;;;;;;;;;3.20;99.90;;;3.22;87.12;101285.44;5092110;28;19923;-71
2021/04/07 03:43:44;;;;;;;;;;;3.20;99.90;;;3.14;86.99;101251.22;5091979;28;19965;-71
2021/04/07 03:46:12;;;;;;;;;;;3.30;99.90;;;3.31;86.78;101283.13;5093349;28;19993;-71
2021/04/07 03:48:39;;;;;;;;;;;3.30;99.90;;;3.20;87.35;101237.47;5092119;28;20384;-71
2021/04/07 03:51:06;;;;;;;;;;;3.30;99.90;;;3.32;87.02;101270.09;5093242;28;19942;-72
2021/04/07 03:53:34;;;;;;;;;;;3.30;99.90;;;3.26;87.70;101258.56;5091896;28;20339;-71
2021/04/07 03:56:01;;;;;;;;;;;3.30;99.90;;;3.09;87.26;101263.28;5091807;28;20033;-72
2021/04/07 03:58:30;;;;;;;;;;;3.10;99.90;;;3.05;87.54;101226.53;5093498;28;19920;-72
2021/04/07 04:00:57;;;;;;;;;;;3.10;99.90;;;3.10;86.94;101258.91;5093034;28;20400;-71
2021/04/07 04:03:24;;;;;;;;;;;3.10;99.90;;;3.16;86.98;101251.28;5093196;28;19932;-71
2021/04/07 04:05:52;;;;;;;;;;;3.10;99.90;;;3.18;86.62;101249.59;5093042;28;19981;-72
2021/04/07 04:08:19;;;;;;;;;;;3.20;99.90;;;3.23;86.25;101258.47;5093136;28;19930;-72
2021/04/07 04:10:46;;;;;;;;;;;3.20;99.90;;;3.38;86.81;101274.63;5093043;28;19923;-72
2021/04/07 04:13:13;;;;;;;;;;;3.30;99.90;;;3.41;86.99;101253.78;5092898;28;19920;-72
2021/04/07 04:15:42;;;;;;;;;;;3.40;99.90;;;3.34;86.65;101260.59;5093012;28;19924;-71
2021/04/07 04:18:09;;;;;;;;;;;3.40;99.90;;;3.42;86.92;101255.59;5093002;28;19924;-71
2021/04/07 04:20:37;;;;;;;;;;;3.40;99.90;;;3.27;86.81;101226.38;5093007;28;19963;-73
2021/04/07 04:23:05;;;;;;;;;;;3.40;99.90;;;3.38;86.90;101252.00;5092852;28;19920;-72
2021/04/07 04:25:32;;;;;;;;;;;3.40;99.90;;;3.40;86.69;101252.03;5092721;28;20394;-71
2021/04/07 04:28:00;;;;;;;;;;;3.50;99.90;;;3.54;86.84;101255.97;5092644;28;19977;-72
2021/04/07 04:30:28;;;;;;;;;;;3.50;99.90;;;3.47;87.02;101246.16;5092989;28;19924;-71
2021/04/07 04:32:58;;;;;;;;;;;3.40;99.90;;;3.51;86.94;101263.69;5091513;28;19952;-72
2021/04/07 04:35:26;;;;;;;;;;;3.50;99.90;;;3.37;87.84;101246.69;5092881;28;19924;-72
2021/04/07 04:37:54;;;;;;;;;;;3.40;99.90;;;3.35;87.90;101253.59;5095691;28;19920;-73
2021/04/07 04:40:21;;;;;;;;;;;3.40;99.90;;;3.42;87.93;101245.13;5095216;28;19969;-71
2021/04/07 04:42:49;;;;;;;;;;;3.40;99.90;;;3.54;88.14;101245.50;5096664;28;20308;-72
2021/04/07 04:45:16;;;;;;;;;;;3.50;99.90;;;3.67;88.47;101239.78;5095182;28;19928;-71
2021/04/07 04:47:44;;;;;;;;;;;3.60;99.90;;;3.76;88.43;101247.00;5096447;28;20320;-73
2021/04/07 04:50:13;;;;;;;;;;;3.70;99.90;;;3.89;88.47;101231.69;5096490;28;19920;-73
2021/04/07 04:52:40;;;;;;;;;;;3.80;99.90;;;4.04;88.16;101229.53;5096593;28;19961;-72
2021/04/07 04:55:09;;;;;;;;;;;4.00;99.90;;;4.15;88.84;101222.84;5096550;28;19920;-72
2021/04/07 04:57:36;;;;;;;;;;;4.10;99.90;;;4.35;88.36;101211.16;5096234;28;20289;-73
2021/04/07 05:00:05;;;;;;;;;;;4.30;99.90;;;4.45;88.53;101238.47;5096355;28;19923;-72
2021/04/07 05:02:32;;;;;;;;;;;4.40;99.90;;;4.51;88.32;101217.66;5096502;28;19924;-71
2021/04/07 05:04:59;;;;;;;;;;;4.40;99.90;;;4.62;88.29;101229.31;5096198;28;19920;-72
2021/04/07 05:07:27;;;;;;;;;;;4.50;99.90;;;4.71;88.35;101246.97;5094714;28;19959;-72
2021/04/07 05:09:54;;;;;;;;;;;4.60;99.90;;;4.65;89.01;101225.84;5095092;28;19920;-71
2021/04/07 05:12:22;;;;;;;;;;;4.60;99.90;;;4.76;89.04;101229.66;5096215;28;19924;-72
2021/04/07 05:14:50;;;;;;;;;;;4.70;99.90;;;4.71;88.75;101249.59;5096391;28;19924;-71
2021/04/07 05:17:18;;;;;;;;;;;4.70;99.90;;;4.19;89.48;101148.78;5095784;28;19966;-72
2021/04/07 05:19:46;;;;;;;;;;;4.70;99.90;;;4.78;89.87;101244.53;5095904;28;19923;-72
2021/04/07 05:22:16;;;;;;;;;;;4.70;99.90;;;4.84;90.23;101260.41;5095799;28;19955;-73
2021/04/07 05:24:45;;;;;;;;;;;4.80;99.90;;;4.24;90.33;101148.91;5094562;28;19920;-72
2021/04/07 05:27:12;;;;;;;;;;;4.90;99.90;;;4.98;90.77;101243.31;5095921;28;19927;-73
2021/04/07 05:29:39;;;;;;;;;;;4.90;99.90;;;4.97;90.98;101262.50;5096115;28;19959;-72
2021/04/07 05:32:07;;;;;;;;;;;4.90;99.90;;;5.06;90.87;101277.56;5095544;28;19924;-72
2021/04/07 05:34:35;;;;;;;;;;;5.00;99.90;;;5.10;91.08;101287.28;5095845;28;19927;-72
2021/04/07 05:37:02;;;;;;;;;;;5.00;99.90;;;5.21;91.67;101272.66;5095777;28;19920;-72
2021/04/07 05:39:29;;;;;;;;;;;5.10;99.90;;;5.29;91.25;101252.75;5095662;28;19970;-71
2021/04/07 05:41:57;;;;;;;;;;;5.20;99.90;;;5.25;90.51;101241.31;5095548;28;19931;-72
2021/04/07 05:44:24;;;;;;;;;;;5.20;99.90;;;5.30;90.33;101275.53;5095374;28;19981;-73
2021/04/07 05:46:52;;;;;;;;;;;5.30;99.90;;;5.17;89.91;101240.25;5095244;28;20373;-72
2021/04/07 05:49:19;;;;;;;;;;;5.30;99.90;;;5.38;89.76;101287.94;5095343;28;19970;-73
2021/04/07 05:51:46;;;;;;;;;;;5.30;99.90;;;5.43;89.45;101296.84;5095454;28;19928;-71
2021/04/07 05:54:13;;;;;;;;;;;5.30;99.90;;;5.49;89.50;101288.22;5094162;28;19920;-71
2021/04/07 05:56:40;;;;;;;;;;;5.40;99.90;;;5.45;89.36;101297.75;5093883;28;19923;-72
2021/04/07 05:59:08;;;;;;;;;;;5.40;99.90;;;5.52;89.48;101317.13;5094085;28;20388;-71
2021/04/07 06:01:36;;;;;;;;;;;5.40;99.90;;;5.55;89.44;101309.34;5093673;28;19985;-72
2021/04/07 06:04:04;;;;;;;;;;;5.50;99.90;;;5.54;89.67;101307.56;5095127;28;19973;-72
2021/04/07 06:06:31;;;;;;;;;;;5.50;99.90;;;5.45;89.04;101296.84;5095446;28;19924;-72
2021/04/07 06:08:58;;;;;;;;;;;5.40;99.90;;;5.48;89.08;101325.78;5095200;28;19931;-71
2021/04/07 06:11:25;;;;;;;;;;;5.40;99.90;;;5.54;89.28;101341.66;5094990;28;19920;-71
2021/04/07 06:13:53;;;;;;;;;;;5.50;99.90;;;5.49;89.69;101346.81;5094857;28;19969;-72
2021/04/07 06:16:21;;;;;;;;;;;5.40;99.90;;;5.68;89.32;101355.09;5094572;28;20430;-72
2021/04/07 06:18:48;;;;;;;;;;;5.60;99.90;;;5.60;89.70;101362.78;5093828;28;19924;-71
2021/04/07 06:21:16;;;;;;;;;;;5.50;99.90;;;5.49;89.34;101365.19;5094802;28;20289;-71
2021/04/07 06:23:43;;;;;;;;;;;5.50;99.90;;;5.66;89.53;101377.78;5093373;28;19970;-72
2021/04/07 06:26:10;;;;;;;;;;;5.60;99.90;;;5.64;89.84;101362.00;5094878;28;19969;-72
2021/04/07 06:28:37;;;;;;;;;;;5.60;99.90;;;5.62;89.66;101357.56;5093384;28;20250;-71
2021/04/07 06:31:05;;;;;;;;;;;5.60;99.90;;;5.73;89.88;101371.84;5094611;28;19970;-71
2021/04/07 06:33:36;;;;;;;;;;;5.60;99.90;;;5.82;89.64;101370.31;5094693;28;20427;-71
2021/04/07 06:36:06;;;;;;;;;;;5.80;99.90;;;5.88;89.11;101388.88;5094404;28;20647;-72
2021/04/07 06:38:35;;;;;;;;;;;5.80;99.90;;;5.73;88.91;101372.72;5094409;28;19973;-72
2021/04/07 06:41:03;;;;;;;;;;;5.70;99.90;;;5.75;89.32;101388.53;5094349;28;19920;-71
2021/04/07 06:43:32;;;;;;;;;;;5.70;99.90;;;5.66;89.57;101368.19;5092798;28;19931;-71
2021/04/07 06:46:03;;;;;;;;;;;5.70;99.90;;;5.83;89.82;101403.59;5094369;28;19920;-72
2021/04/07 06:48:31;;;;;;;;;;;5.80;99.90;;;5.94;89.27;101414.38;5094295;28;19924;-71
2021/04/07 06:51:00;;;;;;;;;;;5.80;99.90;;;5.98;89.18;101411.81;5094184;28;19927;-71
2021/04/07 06:53:28;;;;;;;;;;;5.90;99.90;;;6.00;89.09;101410.13;5094111;28;19920;-71
2021/04/07 06:55:55;;;;;;;;;;;6.00;99.90;;;6.03;89.38;101420.72;5094142;28;20296;-72
2021/04/07 06:58:23;;;;;;;;;;;6.00;99.90;;;5.95;89.70;101414.41;5092635;28;19920;-71
2021/04/07 07:00:50;;;;;;;;;;;5.90;99.90;;;5.97;89.16;101412.69;5093429;28;19920;-72
2021/04/07 07:03:19;;;;;;;;;;;5.90;99.90;;;6.08;88.54;101428.69;5093905;28;20007;-71
2021/04/07 07:05:48;;;;;;;;;;;6.00;99.90;;;6.14;88.48;101428.81;5093825;28;19928;-71
2021/04/07 07:08:21;;;;;;;;;;;6.00;99.90;;;6.19;88.51;101435.06;5093807;28;20331;-71
2021/04/07 07:10:50;;;;;;;;;;;6.10;99.90;;;6.19;88.45;101456.09;5093679;28;20019;-71
2021/04/07 07:13:19;;;;;;;;;;;6.10;99.90;;;6.21;87.85;101442.09;5092589;28;19982;-70
2021/04/07 07:15:46;;;;;;;;;;;6.10;99.90;;;6.21;87.05;101449.13;5093953;28;20359;-72
2021/04/07 07:18:19;;;;;;;;;;;6.20;99.90;;;6.27;86.69;101434.38;5093695;28;19955;-71
2021/04/07 07:20:47;;;;;;;;;;;6.20;99.90;;;6.32;85.87;101451.13;5092562;28;20334;-72
2021/04/07 07:23:22;;;;;;;;;;;6.20;99.90;;;6.22;84.76;101443.00;5093461;28;19973;-71
2021/04/07 07:25:55;;;;;;;;;;;6.30;99.90;;;5.55;84.26;101326.81;5092178;28;19930;-71
2021/04/07 07:28:23;;;;;;;;;;;6.30;99.90;;;6.36;83.93;101492.38;5093545;28;19959;-71
2021/04/07 07:30:50;;;;;;;;;;;6.30;99.90;;;6.38;83.16;101469.66;5093483;28;19920;-71
2021/04/07 07:33:20;;;;;;;;;;;6.30;99.90;;;6.32;81.84;101482.66;5092205;28;19920;-71
2021/04/07 07:35:48;;;;;;;;;;;6.30;99.90;;;6.46;81.26;101451.44;5092033;28;19928;-71
2021/04/07 07:38:26;;;;;;;;;;;6.40;99.90;;;6.29;81.58;101497.47;5093490;28;20124;-72
2021/04/07 07:41:01;;;;;;;;;;;6.30;99.90;;;6.38;81.78;101500.31;5093284;28;19920;-71
2021/04/07 07:43:29;;;;;;;;;;;6.30;99.90;;;6.37;81.73;101482.75;5093296;28;19920;-72
2021/04/07 07:46:07;;;;;;;;;;;6.30;99.90;;;6.36;81.38;101476.63;5093271;28;19923;-71
2021/04/07 07:48:34;;;;;;;;;;;6.30;99.90;;;6.60;81.27;101492.00;5093554;28;19927;-72
2021/04/07 07:51:12;;;;;;;;;;;6.50;99.90;;;6.64;80.25;101507.00;5093301;28;20015;-71
2021/04/07 07:53:44;;;;;;;;;;;6.60;99.90;;;6.68;79.51;101505.34;5093276;28;19920;-71
2021/04/07 07:56:12;;;;;;;;;;;6.60;99.90;;;6.64;78.02;101495.63;5093000;28;19926;-72
2021/04/07 07:58:44;;;;;;;;;;;6.70;99.90;;;6.84;77.19;101516.22;5091463;28;21049;-71
2021/04/07 08:01:13;;;;;;;;;;;6.80;99.90;;;6.84;76.47;101523.19;5092007;28;19920;-71
2021/04/07 08:03:41;;;;;;;;;;;6.80;99.90;;;6.82;76.35;101480.22;5093132;28;19969;-71
2021/04/07 08:06:09;;;;;;;;;;;7.00;99.90;;;7.11;75.47;101531.66;5092969;28;19966;-71
2021/04/07 08:08:48;;;;;;;;;;;7.10;99.90;;;7.08;74.27;101536.88;5093048;28;19920;-71
2021/04/07 08:11:15;;;;;;;;;;;7.10;99.90;;;7.07;74.13;101535.06;5094777;28;20212;-71
2021/04/07 08:13:45;;;;;;;;;;;7.10;99.90;;;7.09;73.87;101531.63;5097348;28;19920;-71
2021/04/07 08:16:16;;;;;;;;;;;7.10;99.90;;;7.13;74.30;101548.34;5097289;28;19969;-69
2021/04/07 08:18:46;;;;;;;;;;;7.10;99.90;;;7.14;74.53;101550.16;5097384;28;20031;-71
2021/04/07 08:21:14;;;;;;;;;;;7.10;99.90;;;7.32;74.26;101551.38;5097019;28;19955;-71
2021/04/07 08:23:43;;;;;;;;;;;7.20;99.90;;;7.37;73.56;101559.38;5097147;28;19923;-71
2021/04/07 08:26:15;;;;;;;;;;;7.30;99.90;;;7.11;72.68;101555.31;5096748;28;20343;-70
2021/04/07 08:28:43;;;;;;;;;;;7.10;99.90;;;7.10;73.05;101554.44;5096978;28;20006;-71
2021/04/07 08:31:13;;;;;;;;;;;7.10;99.90;;;7.09;72.39;101536.00;5096924;28;19919;-71
2021/04/07 08:33:44;;;;;;;;;;;7.00;99.90;;;7.02;72.03;101571.81;5097037;28;19931;-71
2021/04/07 08:36:11;;;;;;;;;;;6.90;99.90;;;7.20;72.47;101574.81;5095758;28;19920;-71
2021/04/07 08:38:38;;;;;;;;;;;7.10;99.90;;;7.13;73.46;101567.66;5095601;28;19928;-71
2021/04/07 08:41:07;;;;;;;;;;;7.10;99.90;;;6.95;73.80;101577.78;5096756;28;20354;-71
2021/04/07 08:43:37;;;;;;;;;;;6.90;99.90;;;6.99;73.68;101581.38;5096684;28;20010;-70
2021/04/07 08:46:12;;;;;;;;;;;6.90;99.90;;;6.97;72.89;101588.34;5096604;28;19924;-70
2021/04/07 08:48:39;;;;;;;;;;;6.90;99.90;;;6.98;71.99;101580.50;5096401;28;19981;-71
2021/04/07 08:51:08;;;;;;;;;;;6.90;99.90;;;6.67;71.28;101558.75;5096734;28;20319;-70
2021/04/07 08:53:39;;;;;;;;;;;6.80;99.90;;;6.90;70.80;101581.19;5095357;28;20370;-70
2021/04/07 08:56:08;;;;;;;;;;;6.90;99.90;;;6.87;69.94;101599.53;5095192;28;19942;-70
2021/04/07 08:58:50;;;;;;;;;;;6.80;99.90;;;7.12;69.77;101589.53;5096617;28;19924;-71
2021/04/07 09:01:24;;;;;;;;;;;7.00;99.90;;;7.34;69.92;101605.81;5096572;28;19920;-71
2021/04/07 09:04:03;;;;;;;;;;;7.20;99.90;;;6.89;69.50;101509.28;5096319;28;20361;-71
2021/04/07 09:06:31;;;;;;;;;;;7.30;99.90;;;7.46;69.38;101606.91;5095044;28;20303;-71
2021/04/07 09:08:58;;;;;;;;;;;7.40;99.90;;;7.60;68.48;101616.00;5096200;28;19920;-71
2021/04/07 09:11:36;;;;;;;;;;;7.50;99.90;;;7.52;67.58;101614.06;5094701;28;20019;-71
2021/04/07 09:14:05;;;;;;;;;;;7.50;99.90;;;7.61;67.44;101627.38;5096225;28;19932;-71
2021/04/07 09:16:35;;;;;;;;;;;7.50;99.90;;;7.57;67.78;101626.44;5096204;28;19920;-71
2021/04/07 09:19:14;;;;;;;;;;;7.50;99.90;;;7.55;67.74;101622.03;5096066;28;19927;-71
2021/04/07 09:21:53;;;;;;;;;;;7.50;99.90;;;7.47;68.18;101627.09;5094516;28;19924;-71
2021/04/07 09:24:20;;;;;;;;;;;7.40;99.90;;;7.65;67.82;101629.22;5095640;28;20357;-71
2021/04/07 09:26:48;;;;;;;;;;;7.50;99.90;;;7.48;68.25;101639.44;5095703;28;19931;-70
2021/04/07 09:29:16;;;;;;;;;;;7.50;99.90;;;7.63;67.17;101644.09;5094421;28;19919;-71
2021/04/07 09:31:45;;;;;;;;;;;7.50;99.90;;;7.81;66.95;101648.00;5095715;28;19973;-71
2021/04/07 09:34:14;;;;;;;;;;;7.70;99.90;;;7.78;67.64;101657.59;5095513;28;19923;-71
2021/04/07 09:36:42;;;;;;;;;;;7.70;99.90;;;7.39;68.68;101639.25;5095780;28;19988;-71
2021/04/07 09:39:11;;;;;;;;;;;7.40;99.90;;;7.37;70.06;101651.47;5094163;28;19927;-70
2021/04/07 09:41:40;;;;;;;;;;;7.30;99.90;;;7.29;74.42;101666.22;5095584;28;19930;-70
2021/04/07 09:44:09;;;;;;;;;;;7.20;99.90;;;6.95;77.08;101684.75;5094171;28;19962;-71
2021/04/07 09:46:37;;;;;;;;;;;6.90;99.90;;;6.70;79.19;101678.00;5095419;28;19924;-71
2021/04/07 09:49:06;;;;;;;;;;;6.70;99.90;;;6.61;80.48;101655.84;5095247;28;20373;-71
2021/04/07 09:51:35;;;;;;;;;;;6.60;99.90;;;6.41;80.81;101675.53;5095364;28;19945;-71
2021/04/07 09:54:08;;;;;;;;;;;6.40;99.90;;;6.04;81.47;101650.91;5094056;28;20368;-71
2021/04/07 09:56:49;;;;;;;;;;;6.20;99.90;;;6.15;81.72;101667.88;5094063;28;19920;-70
2021/04/07 09:59:16;;;;;;;;;;;6.10;99.90;;;6.17;81.96;101683.66;5095067;28;19920;-70
2021/04/07 10:01:44;;;;;;;;;;;6.10;99.90;;;6.36;81.88;101693.78;5095178;28;20356;-70
2021/04/07 10:04:12;;;;;;;;;;;6.20;99.90;;;6.41;81.08;101699.16;5095312;28;20311;-70
2021/04/07 10:06:39;;;;;;;;;;;6.30;99.90;;;6.48;81.43;101685.31;5095087;28;19990;-71
2021/04/07 10:09:08;;;;;;;;;;;6.40;99.90;;;6.63;81.82;101696.22;5095315;28;19944;-71
2021/04/07 10:11:38;;;;;;;;;;;6.50;99.90;;;6.65;81.80;101707.66;5094991;28;19924;-71
2021/04/07 10:14:07;;;;;;;;;;;6.60;99.90;;;6.28;82.58;101711.97;5094732;28;19923;-71
2021/04/07 10:16:35;;;;;;;;;;;6.30;99.90;;;6.03;82.48;101698.16;5095025;28;19923;-70
2021/04/07 10:19:07;;;;;;;;;;;6.10;99.90;;;5.77;83.12;101676.38;5093741;28;19927;-71
2021/04/07 10:21:35;;;;;;;;;;;5.90;99.90;;;5.44;82.62;101681.56;5094837;28;19927;-70
2021/04/07 10:24:04;;;;;;;;;;;5.60;99.90;;;5.43;81.80;101684.16;5094626;28;19920;-70
2021/04/07 10:26:32;;;;;;;;;;;5.50;99.90;;;5.77;82.77;101726.25;5094482;28;19928;-70
2021/04/07 10:29:03;;;;;;;;;;;5.60;99.90;;;5.79;83.36;101724.56;5094796;28;19981;-70
2021/04/07 10:31:31;;;;;;;;;;;5.70;99.90;;;5.88;83.63;101729.25;5093395;28;20297;-70
2021/04/07 10:34:07;;;;;;;;;;;5.70;99.90;;;5.80;83.70;101721.13;5093888;28;19920;-70
2021/04/07 10:36:36;;;;;;;;;;;5.80;99.90;;;5.94;84.37;101717.16;5094274;28;19923;-70
2021/04/07 10:39:11;;;;;;;;;;;5.80;99.90;;;5.99;84.07;101731.31;5094333;28;19929;-71
2021/04/07 10:41:39;;;;;;;;;;;5.80;99.90;;;5.93;83.82;101719.75;5094359;28;20400;-71
2021/04/07 10:44:07;;;;;;;;;;;5.90;99.90;;;6.15;83.43;101709.00;5094318;28;19920;-70
2021/04/07 10:46:34;;;;;;;;;;;6.10;99.90;;;6.39;83.24;101734.16;5093020;28;19920;-70
2021/04/07 10:49:01;;;;;;;;;;;6.20;99.90;;;6.45;82.51;101725.53;5094426;28;19927;-70
2021/04/07 10:51:30;;;;;;;;;;;6.30;99.90;;;6.54;82.11;101745.94;5094102;28;19924;-71
2021/04/07 10:53:59;;;;;;;;;;;6.40;99.90;;;6.67;81.59;101753.25;5094295;28;19924;-71
2021/04/07 10:56:30;;;;;;;;;;;6.50;99.90;;;6.59;80.04;101744.28;5093152;28;19919;-71
2021/04/07 10:59:01;;;;;;;;;;;6.60;99.90;;;6.57;78.29;101741.63;5094079;28;19923;-71
2021/04/07 11:01:29;;;;;;;;;;;6.60;99.90;;;6.35;77.29;101755.03;5092426;28;19927;-71
2021/04/07 11:04:12;;;;;;;;;;;6.40;99.90;;;5.72;78.31;101708.59;5093664;28;20103;-71
2021/04/07 11:06:40;;;;;;;;;;;6.00;99.90;;;5.94;76.68;101742.53;5094010;28;19924;-70
2021/04/07 11:09:11;;;;;;;;;;;5.90;99.90;;;6.04;75.73;101757.72;5093987;28;19967;-71
2021/04/07 11:11:40;;;;;;;;;;;5.90;99.90;;;5.99;75.65;101731.31;5094337;28;20284;-70
2021/04/07 11:14:08;;;;;;;;;;;6.00;99.90;;;6.18;76.44;101753.72;5093847;28;19924;-70
2021/04/07 11:16:36;;;;;;;;;;;6.10;99.90;;;6.17;77.35;101768.59;5093556;28;19928;-70
2021/04/07 11:19:14;;;;;;;;;;;6.10;99.90;;;5.92;77.76;101676.84;5092521;28;19942;-71
2021/04/07 11:21:42;;;;;;;;;;;6.30;99.90;;;6.58;77.44;101767.06;5093918;28;19946;-71
2021/04/07 11:24:10;;;;;;;;;;;6.50;99.90;;;6.64;76.48;101753.22;5093526;28;19920;-71
2021/04/07 11:26:37;;;;;;;;;;;6.50;99.90;;;6.74;75.14;101721.00;5092126;28;19989;-71
2021/04/07 11:29:05;;;;;;;;;;;6.80;99.90;;;7.02;74.26;101758.56;5093616;28;19920;-71
2021/04/07 11:31:34;;;;;;;;;;;6.90;99.90;;;7.24;74.01;101759.94;5092044;28;19928;-71